NO-0011 weather

Henning (Nedre Langli)
Steinkjer, Nord-Trøndelag, Norway

Public forecast

Using degrees Celsius for public forecast. Weather courtesy of forecast.io.

Closest aviation weather report (METAR) to Henning (Nedre Langli)

Closest report is Namsos Høknesøra Airport, 32.5 nm (60.1 km) N. Retrieved 2020/04/08 07:50 UTC (2 hours ago):

ENNM 080750Z 23014KT 9999 -SHRA FEW020 SCT026 BKN033 05/03 Q1008

Closest aviation forecast (TAF) to Henning (Nedre Langli)

Closest forecast is Trondheim Airport Værnes, 33.5 nm (62.0 km) SSW. Retrieved 2020/04/08 06:57 UTC (2 hours ago):

TAF ENVA 080500Z 0806/0906 18018G28KT 9999 BKN040 BECMG 0807/0809 24018KT PROB40 0808/0811 4000 RA BR BKN009 BECMG 0811/0813 -SHRA FEW015CB SCT025 TEMPO 0815/0906 2000 SHSNRA VV009 BECMG 0818/0822 27028G38KT